LGAV/ATH METAR and TAF weather

Enter ICAO airport designator
Station Type Date Time Source
LGAV METAR 2022/06/27 17:20 UTC NOAA

LGAV 271720Z 02007KT 9999 FEW030 26/14 Q1015 NOSIG


Station Type Date Time Source
LGAV Decoded METAR 2022/06/27 17:20 UTC NOAA

Athens Eleftherios Venizelos International Airport, Greece (LGAV) 37-56N 023-56E
Jun 27, 2022 - 01:20 PM EDT / 2022.06.27 1720 UTC
Wind: from the NNE (020 degrees) at 8 MPH (7 KT):0
Visibility: greater than 7 mile(s):0
Sky conditions: mostly clear
Temperature: 78 F (26 C)
Dew Point: 57 F (14 C)
Relative Humidity: 47%
Pressure (altimeter): 29.97 in. Hg (1015 hPa)
ob: LGAV 271720Z 02007KT 9999 FEW030 26/14 Q1015 NOSIG
cycle: 17

Station Type Date Time Source
LGAV TAF 2022/06/27 18:12 UTC NOAA

TAF TAF LGAV 271700Z 2718/2818 03010G20KT 9999 FEW020
BECMG 2718/2720 03012KT
BECMG 2720/2722 33010KT
BECMG 2806/2808 03010KT
TEMPO 2809/2812 03014G24KT

Example: see airport list